You are not logged in, Click here to log in
ICAO: VHHH Country: 香港翔天路1號
Latitude: 22.308 Longitude: 113.918
Total Arrivals: 599 Total Departures: 648
Latest Arrival: BR855 (RCTP-VHHH)CHU. CHUHAO Latest Departure: BR852 (VHHH-RCTP)CHU. CHUHAO
Scenery: http://www.qtc-hk.com/wp-content/uploads/2013/12/20110405092437553.jpg
METAR : VHHH 200300Z 10009KT 070V150 9999 FEW022 SCT040 31/24 Q1005 NOSIG

香港國際機場HKG